Terminal Aerodrome Forecast
Issued by NWS

Home | Current Version | Previous Version | Text Only | Print | Product List | Glossary On
Versions: 1 2 3 4 5 6 7 8 9 10 11 12 13 14 15 16 17 18 19 20 21 22 23 24 25 26
000
FTUS44 KOHX 280409 AAB
TAFCKV
TAF AMD
KCKV 280409Z 2804/2824 29004KT 4SM -TSRA BKN025CB OVC050
     FM280530 00000KT P6SM -RA BKN035
     FM281000 22004KT 2SM -SHRA BR BKN007 OVC015
     FM281600 23006KT 2SM TSRA OVC015CB
     FM282200 25006KT P6SM OVC025=

USA.gov is the U.S. government's official web portal to all federal, state and local government web resources and services.